createdAt,value
2018-08-06T00:00:48.435Z,23.30
2018-08-06T00:03:19.743Z,23.30
2018-08-06T00:05:49.873Z,23.20
2018-08-06T00:08:20.816Z,23.20
2018-08-06T00:10:51.097Z,23.20
2018-08-06T00:13:21.876Z,23.10
2018-08-06T00:15:52.279Z,23.10
2018-08-06T00:18:23.786Z,23.00
2018-08-06T00:20:55.288Z,23.00
2018-08-06T00:23:26.652Z,23.00
2018-08-06T00:25:56.911Z,22.90
2018-08-06T00:28:27.936Z,22.90
2018-08-06T00:30:59.342Z,22.80
2018-08-06T00:33:29.429Z,22.80
2018-08-06T00:35:59.979Z,22.70
2018-08-06T00:38:30.229Z,22.70
2018-08-06T00:41:00.528Z,22.60
2018-08-06T00:43:30.742Z,22.60
2018-08-06T00:46:01.093Z,22.60
2018-08-06T00:48:31.947Z,22.50
2018-08-06T00:51:02.362Z,22.50
2018-08-06T00:53:32.572Z,22.40
2018-08-06T00:56:03.742Z,22.40
2018-08-06T00:58:33.859Z,22.30
2018-08-06T01:01:04.364Z,22.30
2018-08-06T01:03:34.611Z,22.30
2018-08-06T01:06:05.786Z,22.20
2018-08-06T01:08:36.423Z,22.20
2018-08-06T01:11:07.294Z,22.20
2018-08-06T01:13:37.682Z,22.10
2018-08-06T01:16:08.408Z,22.10
2018-08-06T01:18:39.064Z,22.00
2018-08-06T01:21:09.308Z,22.00
2018-08-06T01:23:39.452Z,21.90
2018-08-06T01:26:10.059Z,21.90
2018-08-06T01:28:40.321Z,21.90
2018-08-06T01:31:11.901Z,21.80
2018-08-06T01:33:42.225Z,21.80
2018-08-06T01:36:12.999Z,21.70
2018-08-06T01:38:43.507Z,21.70
2018-08-06T01:41:13.720Z,21.70
2018-08-06T01:43:44.306Z,21.70
2018-08-06T01:46:15.013Z,21.60
2018-08-06T01:48:45.542Z,21.60
2018-08-06T01:51:15.731Z,21.60
2018-08-06T01:53:45.806Z,21.50
2018-08-06T01:56:16.111Z,21.50
2018-08-06T01:58:46.173Z,21.50
2018-08-06T02:01:16.351Z,21.50
2018-08-06T02:03:46.413Z,21.40
2018-08-06T02:06:16.962Z,21.40
2018-08-06T02:08:47.963Z,21.40
2018-08-06T02:11:18.121Z,21.30
2018-08-06T02:13:48.399Z,21.30
2018-08-06T02:16:18.705Z,21.30
2018-08-06T02:18:49.246Z,21.20
2018-08-06T02:21:19.454Z,21.20
2018-08-06T02:23:50.649Z,21.20
2018-08-06T02:26:21.963Z,21.20
2018-08-06T02:28:52.017Z,21.10
2018-08-06T02:31:22.492Z,21.10
2018-08-06T02:33:53.042Z,21.10
2018-08-06T02:36:23.266Z,21.00
2018-08-06T02:38:53.552Z,21.00
2018-08-06T02:41:23.769Z,21.00
2018-08-06T02:43:54.170Z,20.90
2018-08-06T02:46:24.379Z,20.90
2018-08-06T02:48:55.046Z,20.90
2018-08-06T02:51:25.226Z,20.90
2018-08-06T02:53:56.485Z,20.80
2018-08-06T02:56:26.246Z,20.80
2018-08-06T02:58:57.114Z,20.80
2018-08-06T03:01:26.988Z,20.80
2018-08-06T03:03:58.361Z,20.80
2018-08-06T03:06:28.377Z,20.70
2018-08-06T03:08:58.600Z,20.70
2018-08-06T03:11:28.757Z,20.70
2018-08-06T03:13:59.858Z,20.70
2018-08-06T03:16:30.129Z,20.60
2018-08-06T03:19:00.631Z,20.60
2018-08-06T03:21:30.678Z,20.60
2018-08-06T03:24:01.579Z,20.60
2018-08-06T03:26:31.842Z,20.60
2018-08-06T03:29:01.835Z,20.50
2018-08-06T03:31:31.978Z,20.50
2018-08-06T03:34:02.065Z,20.50
2018-08-06T03:36:32.176Z,20.50
2018-08-06T03:39:02.594Z,20.40
2018-08-06T03:41:33.331Z,20.20
2018-08-06T03:44:03.697Z,20.40
2018-08-06T03:46:33.878Z,20.30
2018-08-06T03:49:04.007Z,20.30
2018-08-06T03:51:34.378Z,20.30
2018-08-06T03:54:04.454Z,20.30
2018-08-06T03:56:34.977Z,20.30
2018-08-06T03:59:05.716Z,20.20
2018-08-06T04:01:36.153Z,20.20
2018-08-06T04:04:06.231Z,20.20
2018-08-06T04:06:36.655Z,20.20
2018-08-06T04:09:08.794Z,20.20
2018-08-06T04:11:38.873Z,20.10
2018-08-06T04:14:09.310Z,20.10
2018-08-06T04:16:43.192Z,20.10
2018-08-06T04:19:14.384Z,20.10
2018-08-06T04:21:44.544Z,20.00
2018-08-06T04:24:14.838Z,20.00
2018-08-06T04:26:45.250Z,20.00
2018-08-06T04:29:15.577Z,20.00
2018-08-06T04:31:45.782Z,20.00
2018-08-06T04:34:16.318Z,20.00
2018-08-06T04:36:46.529Z,19.90
2018-08-06T04:39:17.079Z,19.90
2018-08-06T04:41:47.462Z,19.90
2018-08-06T04:44:17.412Z,19.90
2018-08-06T04:46:47.767Z,19.90
2018-08-06T04:49:17.829Z,19.90
2018-08-06T04:51:48.164Z,19.90
2018-08-06T04:54:18.538Z,19.90
2018-08-06T04:56:48.764Z,19.90
2018-08-06T04:59:19.607Z,19.90
2018-08-06T05:01:50.325Z,20.00
2018-08-06T05:04:20.673Z,20.00
2018-08-06T05:06:50.909Z,20.00
2018-08-06T05:09:24.780Z,20.00
2018-08-06T05:11:54.864Z,20.00
2018-08-06T05:14:25.004Z,20.00
2018-08-06T05:16:55.193Z,20.00
2018-08-06T05:19:25.246Z,20.10
2018-08-06T05:21:55.451Z,20.10
2018-08-06T05:24:25.963Z,20.10
2018-08-06T05:26:56.369Z,20.10
2018-08-06T05:29:26.446Z,20.20
2018-08-06T05:31:56.737Z,20.20
2018-08-06T05:34:26.779Z,20.30
2018-08-06T05:36:56.980Z,20.30
2018-08-06T05:39:27.622Z,20.40
2018-08-06T05:41:57.857Z,20.40
2018-08-06T05:44:28.711Z,20.50
2018-08-06T05:47:00.026Z,20.60
2018-08-06T05:49:30.109Z,20.60
2018-08-06T05:52:01.620Z,20.70
2018-08-06T05:54:32.272Z,20.80
2018-08-06T05:57:02.717Z,20.90
2018-08-06T05:59:32.736Z,21.00
2018-08-06T06:02:03.190Z,21.10
2018-08-06T06:04:33.306Z,21.30
2018-08-06T06:07:03.113Z,21.40
2018-08-06T06:09:33.420Z,21.50
2018-08-06T06:12:03.648Z,21.60
2018-08-06T06:14:33.825Z,21.70
2018-08-06T06:17:04.017Z,21.80
2018-08-06T06:19:35.720Z,21.90
2018-08-06T06:22:06.116Z,22.00
2018-08-06T06:24:36.317Z,22.00
2018-08-06T06:27:06.477Z,22.10
2018-08-06T06:29:36.609Z,22.20
2018-08-06T06:32:07.404Z,22.20
2018-08-06T06:34:37.790Z,22.30
2018-08-06T06:37:08.052Z,22.30
2018-08-06T06:39:38.663Z,22.40
2018-08-06T06:42:09.001Z,22.40
2018-08-06T06:44:39.200Z,22.50
2018-08-06T06:47:10.797Z,22.60
2018-08-06T06:49:40.846Z,22.70
2018-08-06T06:52:11.340Z,22.70
2018-08-06T06:54:41.721Z,22.70
2018-08-06T06:57:14.605Z,22.80
2018-08-06T06:59:45.066Z,22.90
2018-08-06T07:02:15.283Z,22.90
2018-08-06T07:04:45.427Z,23.00
2018-08-06T07:07:15.523Z,23.00
2018-08-06T07:09:45.845Z,23.00
2018-08-06T07:12:16.219Z,22.90
2018-08-06T07:14:46.762Z,23.00
2018-08-06T07:17:17.185Z,23.10
2018-08-06T07:19:47.448Z,23.10
2018-08-06T07:22:17.628Z,23.10
2018-08-06T07:24:48.460Z,23.20
2018-08-06T07:27:18.738Z,23.30
2018-08-06T07:29:49.107Z,23.40
2018-08-06T07:32:20.556Z,23.40
2018-08-06T07:34:50.932Z,23.60
2018-08-06T07:37:21.139Z,23.60
2018-08-06T07:39:51.229Z,23.60
2018-08-06T07:42:21.661Z,23.70
2018-08-06T07:44:52.929Z,23.70
2018-08-06T07:47:23.311Z,23.80
2018-08-06T07:49:53.889Z,23.90
2018-08-06T07:52:24.357Z,24.00
2018-08-06T07:54:55.458Z,24.20
2018-08-06T07:57:25.679Z,24.30
2018-08-06T07:59:55.917Z,24.40
2018-08-06T08:02:25.882Z,24.40
2018-08-06T08:04:56.366Z,24.40
2018-08-06T08:07:27.548Z,24.40
2018-08-06T08:09:57.961Z,24.40
2018-08-06T08:12:28.077Z,24.50
2018-08-06T08:14:58.225Z,24.60
2018-08-06T08:17:28.685Z,24.70
2018-08-06T08:19:59.027Z,24.80
2018-08-06T08:22:29.253Z,24.90
2018-08-06T08:24:59.795Z,24.90
2018-08-06T08:27:30.621Z,25.00
2018-08-06T08:30:01.091Z,25.20
2018-08-06T08:32:31.613Z,25.30
2018-08-06T08:35:02.236Z,25.40
2018-08-06T08:37:33.943Z,25.50
2018-08-06T08:40:05.885Z,25.50
2018-08-06T08:42:36.901Z,25.60
2018-08-06T08:45:11.114Z,25.80
2018-08-06T08:47:42.566Z,26.00
2018-08-06T08:50:15.786Z,26.10
2018-08-06T08:52:46.259Z,26.20
2018-08-06T08:55:19.607Z,26.30
2018-08-06T08:57:49.929Z,26.20
2018-08-06T09:00:22.532Z,26.10
2018-08-06T09:02:53.457Z,26.10
2018-08-06T09:05:23.621Z,26.20
2018-08-06T09:07:54.538Z,26.40
2018-08-06T09:10:25.716Z,26.60
2018-08-06T09:12:56.168Z,26.70
2018-08-06T09:15:33.644Z,26.80
2018-08-06T09:18:03.728Z,26.90
2018-08-06T09:20:34.045Z,26.90
2018-08-06T09:23:04.696Z,27.00
2018-08-06T09:25:35.482Z,27.10
2018-08-06T09:28:05.585Z,27.10
2018-08-06T09:30:35.743Z,27.10
2018-08-06T09:33:06.097Z,27.00
2018-08-06T09:35:36.495Z,27.00
2018-08-06T09:38:07.663Z,27.00
2018-08-06T09:40:38.041Z,26.90
2018-08-06T09:43:08.547Z,26.90
2018-08-06T09:45:40.184Z,26.80
2018-08-06T09:48:10.361Z,26.80
2018-08-06T09:50:40.935Z,26.90
2018-08-06T09:53:11.393Z,26.90
2018-08-06T09:55:41.930Z,27.00
2018-08-06T09:58:22.258Z,27.30
2018-08-06T10:00:57.650Z,27.50
2018-08-06T10:03:27.964Z,27.60
2018-08-06T10:05:58.269Z,27.50
2018-08-06T10:08:28.670Z,27.40
2018-08-06T10:10:59.514Z,27.40
2018-08-06T10:13:30.359Z,27.30
2018-08-06T10:16:01.255Z,27.30
2018-08-06T10:18:31.607Z,27.20
2018-08-06T10:21:01.973Z,27.20
2018-08-06T10:23:32.565Z,27.20
2018-08-06T10:26:02.860Z,27.20
2018-08-06T10:28:33.191Z,27.10
2018-08-06T10:31:03.745Z,27.10
2018-08-06T10:33:34.018Z,27.30
2018-08-06T10:36:05.128Z,27.40
2018-08-06T10:38:35.279Z,27.50
2018-08-06T10:41:05.725Z,27.60
2018-08-06T10:43:36.327Z,27.70
2018-08-06T10:46:06.650Z,27.70
2018-08-06T10:48:37.045Z,27.70
2018-08-06T10:51:08.384Z,27.70
2018-08-06T10:53:40.498Z,27.70
2018-08-06T10:56:11.739Z,27.70
2018-08-06T10:58:42.679Z,27.70
2018-08-06T11:01:13.386Z,27.70
2018-08-06T11:03:44.537Z,27.80
2018-08-06T11:06:15.373Z,27.80
2018-08-06T11:08:46.620Z,27.90
2018-08-06T11:11:17.703Z,27.70
2018-08-06T11:13:48.882Z,27.60
2018-08-06T11:16:19.726Z,27.50
2018-08-06T11:18:57.497Z,27.50
2018-08-06T11:21:31.368Z,27.40
2018-08-06T11:24:02.107Z,27.40
2018-08-06T11:26:32.204Z,27.30
2018-08-06T11:29:03.913Z,27.30
2018-08-06T11:31:34.998Z,27.30
2018-08-06T11:34:05.179Z,27.40
2018-08-06T11:36:39.759Z,27.40
2018-08-06T11:39:11.674Z,27.50
2018-08-06T11:41:42.806Z,27.60
2018-08-06T11:44:13.128Z,27.80
2018-08-06T11:46:43.202Z,27.80
2018-08-06T11:49:15.374Z,27.80
2018-08-06T11:51:50.080Z,27.80
2018-08-06T11:54:20.334Z,27.80
2018-08-06T11:56:52.517Z,27.80
2018-08-06T11:59:22.889Z,27.70
2018-08-06T12:01:55.306Z,27.70
2018-08-06T12:04:26.277Z,27.70
2018-08-06T12:06:56.497Z,27.80
2018-08-06T12:09:26.546Z,27.90
2018-08-06T12:11:56.796Z,28.00
2018-08-06T12:14:27.353Z,28.10
2018-08-06T12:16:58.691Z,28.20
2018-08-06T12:19:28.868Z,28.20
2018-08-06T12:21:59.505Z,28.20
2018-08-06T12:24:32.356Z,28.30
2018-08-06T12:27:03.860Z,28.30
2018-08-06T12:29:34.404Z,28.40
2018-08-06T12:32:04.662Z,28.40
2018-08-06T12:34:34.587Z,28.30
2018-08-06T12:37:04.692Z,28.30
2018-08-06T12:39:35.148Z,28.30
2018-08-06T12:42:05.566Z,28.40
2018-08-06T12:44:35.903Z,28.40
2018-08-06T12:47:06.505Z,28.50
2018-08-06T12:49:36.590Z,28.50
2018-08-06T12:52:07.427Z,28.50
2018-08-06T12:54:38.984Z,28.60
2018-08-06T12:57:09.716Z,28.70
2018-08-06T12:59:40.931Z,28.70
2018-08-06T13:02:12.650Z,28.70
2018-08-06T13:04:42.916Z,28.70
2018-08-06T13:07:13.090Z,28.80
2018-08-06T13:09:43.337Z,28.90
2018-08-06T13:12:13.641Z,29.00
2018-08-06T13:14:43.925Z,29.10
2018-08-06T13:17:17.194Z,29.20
2018-08-06T13:19:47.509Z,29.30
2018-08-06T13:22:17.509Z,29.40
2018-08-06T13:24:47.805Z,29.40
2018-08-06T13:27:18.701Z,29.50
2018-08-06T13:29:49.602Z,29.50
2018-08-06T13:32:22.611Z,29.50
2018-08-06T13:34:52.509Z,29.60
2018-08-06T13:37:24.595Z,29.70
2018-08-06T13:39:54.662Z,29.70
2018-08-06T13:42:24.780Z,29.60
2018-08-06T13:44:55.426Z,29.60
2018-08-06T13:47:25.528Z,29.50
2018-08-06T13:49:56.041Z,29.50
2018-08-06T13:52:26.919Z,29.50
2018-08-06T13:54:56.914Z,29.50
2018-08-06T13:57:30.265Z,29.60
2018-08-06T14:00:01.195Z,29.70
2018-08-06T14:02:33.637Z,29.90
2018-08-06T14:05:04.441Z,30.30
2018-08-06T14:07:35.377Z,30.90
2018-08-06T14:10:07.195Z,31.90
2018-08-06T14:12:38.658Z,33.00
2018-08-06T14:15:10.967Z,34.00
2018-08-06T14:17:41.933Z,35.20
2018-08-06T14:20:17.190Z,36.20
2018-08-06T14:22:47.681Z,37.10
2018-08-06T14:25:17.983Z,38.10
2018-08-06T14:27:51.575Z,39.00
2018-08-06T14:30:23.777Z,39.70
2018-08-06T14:32:56.639Z,40.30
2018-08-06T14:35:34.161Z,40.70
2018-08-06T14:38:07.383Z,41.20
2018-08-06T14:40:40.727Z,41.90
2018-08-06T14:43:14.117Z,42.30
2018-08-06T14:45:46.928Z,42.50
2018-08-06T14:48:19.633Z,42.90
2018-08-06T14:50:52.554Z,43.40
2018-08-06T14:53:25.670Z,44.10
2018-08-06T14:55:57.607Z,44.10
2018-08-06T14:58:29.593Z,44.10
2018-08-06T15:01:01.905Z,44.00
2018-08-06T15:03:35.445Z,44.00
2018-08-06T15:06:07.429Z,44.00
2018-08-06T15:08:39.391Z,44.10
2018-08-06T15:11:12.355Z,44.30
2018-08-06T15:13:45.919Z,44.70
2018-08-06T15:16:16.746Z,44.80
2018-08-06T15:18:49.118Z,44.90
2018-08-06T15:21:20.760Z,45.00
2018-08-06T15:23:57.956Z,45.20
2018-08-06T15:26:30.617Z,45.70
2018-08-06T15:29:04.493Z,46.10
2018-08-06T15:31:35.526Z,46.20
2018-08-06T15:34:05.486Z,46.30
2018-08-06T15:36:35.974Z,46.40
2018-08-06T15:39:13.682Z,46.70
2018-08-06T15:41:44.971Z,47.10
2018-08-06T15:44:15.242Z,47.20
2018-08-06T15:46:45.372Z,47.10
2018-08-06T15:49:15.659Z,46.90
2018-08-06T15:51:45.853Z,47.20
2018-08-06T15:54:16.252Z,47.70
2018-08-06T15:56:46.449Z,48.30
2018-08-06T15:59:17.220Z,48.70
2018-08-06T16:01:47.669Z,48.70
2018-08-06T16:04:19.269Z,48.50
2018-08-06T16:06:49.405Z,48.40
2018-08-06T16:09:19.994Z,48.60
2018-08-06T16:11:50.523Z,48.90
2018-08-06T16:14:20.692Z,48.90
2018-08-06T16:16:51.028Z,48.10
2018-08-06T16:19:22.644Z,47.50
2018-08-06T16:21:54.969Z,47.10
2018-08-06T16:24:24.889Z,46.70
2018-08-06T16:26:54.738Z,46.50
2018-08-06T16:29:25.202Z,45.90
2018-08-06T16:31:55.576Z,45.50
2018-08-06T16:34:26.210Z,45.00
2018-08-06T16:36:57.249Z,44.60
2018-08-06T16:39:27.334Z,44.60
2018-08-06T16:41:57.954Z,44.80
2018-08-06T16:44:28.332Z,44.90
2018-08-06T16:46:59.493Z,45.10
2018-08-06T16:49:30.487Z,45.50
2018-08-06T16:52:01.636Z,45.80
2018-08-06T16:54:32.574Z,46.00
2018-08-06T16:57:03.328Z,46.20
2018-08-06T16:59:34.145Z,46.50
2018-08-06T17:02:04.627Z,46.60
2018-08-06T17:04:34.738Z,46.50
2018-08-06T17:07:04.979Z,46.40
2018-08-06T17:09:35.818Z,46.50
2018-08-06T17:12:06.541Z,46.70
2018-08-06T17:14:37.293Z,46.70
2018-08-06T17:17:08.542Z,46.30
2018-08-06T17:19:40.059Z,45.80
2018-08-06T17:22:12.958Z,45.20
2018-08-06T17:24:43.217Z,44.70
2018-08-06T17:27:13.269Z,44.50
2018-08-06T17:29:44.110Z,44.50
2018-08-06T17:32:14.473Z,44.40
2018-08-06T17:34:45.754Z,44.10
2018-08-06T17:37:16.346Z,43.90
2018-08-06T17:39:46.629Z,43.50
2018-08-06T17:42:16.700Z,43.30
2018-08-06T17:44:48.086Z,43.00
2018-08-06T17:47:18.912Z,42.80
2018-08-06T17:49:49.118Z,42.90
2018-08-06T17:52:19.765Z,43.10
2018-08-06T17:54:57.359Z,43.20
2018-08-06T17:57:28.636Z,42.90
2018-08-06T17:59:59.381Z,42.70
2018-08-06T18:02:29.713Z,42.30
2018-08-06T18:05:00.320Z,41.90
2018-08-06T18:07:30.783Z,41.60
2018-08-06T18:10:01.676Z,41.40
2018-08-06T18:12:32.589Z,41.30
2018-08-06T18:15:03.198Z,41.00
2018-08-06T18:17:33.229Z,40.90
2018-08-06T18:20:03.373Z,40.80
2018-08-06T18:22:34.276Z,40.80
2018-08-06T18:25:06.674Z,40.80
2018-08-06T18:27:37.934Z,40.80
2018-08-06T18:30:15.842Z,40.90
2018-08-06T18:32:46.397Z,40.80
2018-08-06T18:35:17.776Z,40.80
2018-08-06T18:37:48.366Z,40.50
2018-08-06T18:40:20.023Z,39.90
2018-08-06T18:42:51.460Z,39.20
2018-08-06T18:45:23.058Z,38.50
2018-08-06T18:47:53.172Z,37.80
2018-08-06T18:50:24.041Z,37.10
2018-08-06T18:52:54.743Z,36.50
2018-08-06T18:55:25.766Z,35.80
2018-08-06T18:57:56.020Z,35.20
2018-08-06T19:00:27.198Z,34.60
2018-08-06T19:02:57.410Z,34.10
2018-08-06T19:05:27.598Z,33.70
2018-08-06T19:07:57.707Z,33.30
2018-08-06T19:10:28.019Z,32.90
2018-08-06T19:13:03.129Z,32.50
2018-08-06T19:15:34.266Z,32.20
2018-08-06T19:18:09.514Z,31.90
2018-08-06T19:20:39.608Z,31.60
2018-08-06T19:23:10.505Z,31.40
2018-08-06T19:25:41.282Z,31.10
2018-08-06T19:28:11.914Z,30.80
2018-08-06T19:30:47.274Z,30.60
2018-08-06T19:33:17.452Z,30.40
2018-08-06T19:35:48.058Z,30.10
2018-08-06T19:38:18.712Z,29.90
2018-08-06T19:40:48.841Z,29.70
2018-08-06T19:43:24.192Z,29.60
2018-08-06T19:45:54.434Z,29.40
2018-08-06T19:48:24.720Z,29.20
2018-08-06T19:50:54.962Z,29.10
2018-08-06T19:53:25.165Z,28.90
2018-08-06T19:56:00.332Z,28.80
2018-08-06T19:58:30.380Z,28.60
2018-08-06T20:01:00.898Z,28.40
2018-08-06T20:03:31.229Z,28.30
2018-08-06T20:06:01.417Z,28.20
2018-08-06T20:08:31.839Z,28.00
2018-08-06T20:11:02.227Z,27.90
2018-08-06T20:13:32.907Z,27.80
2018-08-06T20:16:03.293Z,27.60
2018-08-06T20:18:34.065Z,27.50
2018-08-06T20:21:04.285Z,27.40
2018-08-06T20:23:35.212Z,27.30
2018-08-06T20:26:05.488Z,27.20
2018-08-06T20:28:35.468Z,27.10
2018-08-06T20:31:05.767Z,27.00
2018-08-06T20:33:35.892Z,26.90
2018-08-06T20:36:07.090Z,26.80
2018-08-06T20:38:37.104Z,26.70
2018-08-06T20:41:07.158Z,26.60
2018-08-06T20:43:38.160Z,26.60
2018-08-06T20:46:08.721Z,26.50
2018-08-06T20:48:39.382Z,26.40
2018-08-06T20:51:09.990Z,26.40
2018-08-06T20:53:41.260Z,26.30
2018-08-06T20:56:11.801Z,26.20
2018-08-06T20:58:41.849Z,26.10
2018-08-06T21:01:12.286Z,26.10
2018-08-06T21:03:42.269Z,26.00
2018-08-06T21:06:12.627Z,26.00
2018-08-06T21:08:42.821Z,25.90
2018-08-06T21:11:13.018Z,25.80
2018-08-06T21:13:43.346Z,25.80
2018-08-06T21:16:13.577Z,25.70
2018-08-06T21:18:43.570Z,25.60
2018-08-06T21:21:13.659Z,25.60
2018-08-06T21:23:44.124Z,25.50
2018-08-06T21:26:14.670Z,25.50
2018-08-06T21:28:45.830Z,25.40
2018-08-06T21:31:16.115Z,25.40
2018-08-06T21:33:46.052Z,25.30
2018-08-06T21:36:16.161Z,25.30
2018-08-06T21:38:46.591Z,25.20
2018-08-06T21:41:16.886Z,25.20
2018-08-06T21:43:47.083Z,25.10
2018-08-06T21:46:17.549Z,25.10
2018-08-06T21:48:47.894Z,25.00
2018-08-06T21:51:18.028Z,24.90
2018-08-06T21:53:48.410Z,24.90
2018-08-06T21:56:19.110Z,24.80
2018-08-06T21:58:49.346Z,24.80
2018-08-06T22:01:20.232Z,24.70
2018-08-06T22:03:50.678Z,24.70
2018-08-06T22:06:20.773Z,24.60
2018-08-06T22:08:50.903Z,24.50
2018-08-06T22:11:21.601Z,24.50
2018-08-06T22:13:51.856Z,24.40
2018-08-06T22:16:22.165Z,24.40
2018-08-06T22:18:52.309Z,24.40
2018-08-06T22:21:22.634Z,24.30
2018-08-06T22:23:53.042Z,24.30
2018-08-06T22:26:23.041Z,24.20
2018-08-06T22:28:53.365Z,24.10
2018-08-06T22:31:24.911Z,24.10
2018-08-06T22:33:55.599Z,24.10
2018-08-06T22:36:26.445Z,24.00
2018-08-06T22:38:56.630Z,24.00
2018-08-06T22:41:26.945Z,24.00
2018-08-06T22:43:57.681Z,23.70
2018-08-06T22:46:28.350Z,23.90
2018-08-06T22:48:59.152Z,23.80
2018-08-06T22:51:29.929Z,23.80
2018-08-06T22:54:00.240Z,23.80
2018-08-06T22:56:30.361Z,23.70
2018-08-06T22:59:01.800Z,23.60
2018-08-06T23:01:32.473Z,23.60
2018-08-06T23:04:02.928Z,23.60
2018-08-06T23:06:34.094Z,23.60
2018-08-06T23:09:07.479Z,23.50
2018-08-06T23:11:37.935Z,23.50
2018-08-06T23:14:09.531Z,23.40
2018-08-06T23:16:40.148Z,23.40
2018-08-06T23:19:10.275Z,23.40
2018-08-06T23:21:41.342Z,23.30
2018-08-06T23:24:11.737Z,23.30
2018-08-06T23:26:41.994Z,23.20
2018-08-06T23:29:12.492Z,23.20
2018-08-06T23:31:44.959Z,23.10
2018-08-06T23:34:15.020Z,23.10
2018-08-06T23:36:46.618Z,23.10
2018-08-06T23:39:23.984Z,23.00
2018-08-06T23:41:55.735Z,23.00
2018-08-06T23:44:26.109Z,22.90
2018-08-06T23:46:56.928Z,22.90
2018-08-06T23:49:27.162Z,22.80
2018-08-06T23:51:58.779Z,22.80
2018-08-06T23:54:29.820Z,22.70
2018-08-06T23:57:00.762Z,22.70
2018-08-06T23:59:31.369Z,22.70
